sensor_id;sensor_type;location;lat;lon;timestamp;P1;durP1;ratioP1;P2;durP2;ratioP2
45434;SDS011;31183;47.404;8.500;2024-01-30T00:02:24;20.00;;;14.82;;
45434;SDS011;31183;47.404;8.500;2024-01-30T00:04:51;19.17;;;12.70;;
45434;SDS011;31183;47.404;8.500;2024-01-30T00:07:18;20.92;;;14.25;;
45434;SDS011;31183;47.404;8.500;2024-01-30T00:09:46;19.25;;;13.05;;
45434;SDS011;31183;47.404;8.500;2024-01-30T00:12:14;22.15;;;14.73;;
45434;SDS011;31183;47.404;8.500;2024-01-30T00:14:41;23.10;;;15.45;;
45434;SDS011;31183;47.404;8.500;2024-01-30T00:17:09;20.67;;;15.40;;
45434;SDS011;31183;47.404;8.500;2024-01-30T00:19:36;24.75;;;15.88;;
45434;SDS011;31183;47.404;8.500;2024-01-30T00:22:03;22.42;;;16.30;;
45434;SDS011;31183;47.404;8.500;2024-01-30T00:24:29;26.52;;;16.00;;
45434;SDS011;31183;47.404;8.500;2024-01-30T00:26:56;24.63;;;16.60;;
45434;SDS011;31183;47.404;8.500;2024-01-30T00:29:23;25.25;;;17.23;;
45434;SDS011;31183;47.404;8.500;2024-01-30T00:31:51;25.40;;;16.15;;
45434;SDS011;31183;47.404;8.500;2024-01-30T00:34:18;28.60;;;18.02;;
45434;SDS011;31183;47.404;8.500;2024-01-30T00:36:45;26.55;;;18.70;;
45434;SDS011;31183;47.404;8.500;2024-01-30T00:39:12;27.00;;;17.88;;
45434;SDS011;31183;47.404;8.500;2024-01-30T00:41:38;30.73;;;18.02;;
45434;SDS011;31183;47.404;8.500;2024-01-30T00:44:05;30.60;;;17.95;;
45434;SDS011;31183;47.404;8.500;2024-01-30T00:46:32;28.10;;;18.25;;
45434;SDS011;31183;47.404;8.500;2024-01-30T00:48:58;28.83;;;17.65;;
45434;SDS011;31183;47.404;8.500;2024-01-30T00:51:25;25.95;;;19.10;;
45434;SDS011;31183;47.404;8.500;2024-01-30T00:53:51;29.60;;;18.92;;
45434;SDS011;31183;47.404;8.500;2024-01-30T00:56:18;29.00;;;19.60;;
45434;SDS011;31183;47.404;8.500;2024-01-30T00:58:45;29.83;;;19.23;;
45434;SDS011;31183;47.404;8.500;2024-01-30T01:01:12;27.50;;;17.95;;
45434;SDS011;31183;47.404;8.500;2024-01-30T01:03:39;32.65;;;17.30;;
45434;SDS011;31183;47.404;8.500;2024-01-30T01:06:07;29.45;;;18.48;;
45434;SDS011;31183;47.404;8.500;2024-01-30T01:08:34;27.17;;;18.20;;
45434;SDS011;31183;47.404;8.500;2024-01-30T01:11:00;27.77;;;17.83;;
45434;SDS011;31183;47.404;8.500;2024-01-30T01:13:27;29.50;;;18.08;;
45434;SDS011;31183;47.404;8.500;2024-01-30T01:15:53;26.92;;;18.98;;
45434;SDS011;31183;47.404;8.500;2024-01-30T01:18:21;26.42;;;18.90;;
45434;SDS011;31183;47.404;8.500;2024-01-30T01:20:47;26.58;;;19.02;;
45434;SDS011;31183;47.404;8.500;2024-01-30T01:23:14;27.10;;;18.77;;
45434;SDS011;31183;47.404;8.500;2024-01-30T01:25:41;28.95;;;19.83;;
45434;SDS011;31183;47.404;8.500;2024-01-30T01:28:07;32.92;;;19.77;;
45434;SDS011;31183;47.404;8.500;2024-01-30T01:30:34;26.52;;;18.50;;
45434;SDS011;31183;47.404;8.500;2024-01-30T01:33:01;25.77;;;17.88;;
45434;SDS011;31183;47.404;8.500;2024-01-30T01:35:28;26.95;;;18.23;;
45434;SDS011;31183;47.404;8.500;2024-01-30T01:37:55;29.50;;;18.65;;
45434;SDS011;31183;47.404;8.500;2024-01-30T01:40:22;25.95;;;19.00;;
45434;SDS011;31183;47.404;8.500;2024-01-30T01:42:50;28.00;;;19.17;;
45434;SDS011;31183;47.404;8.500;2024-01-30T01:45:20;34.97;;;19.83;;
45434;SDS011;31183;47.404;8.500;2024-01-30T01:47:48;29.85;;;19.52;;
45434;SDS011;31183;47.404;8.500;2024-01-30T01:50:17;29.05;;;19.52;;
45434;SDS011;31183;47.404;8.500;2024-01-30T01:52:47;28.15;;;20.88;;
45434;SDS011;31183;47.404;8.500;2024-01-30T01:55:17;31.92;;;20.65;;
45434;SDS011;31183;47.404;8.500;2024-01-30T01:57:51;28.58;;;18.02;;
45434;SDS011;31183;47.404;8.500;2024-01-30T02:00:19;32.13;;;19.92;;
45434;SDS011;31183;47.404;8.500;2024-01-30T02:02:46;31.17;;;19.80;;
45434;SDS011;31183;47.404;8.500;2024-01-30T02:05:14;29.70;;;18.80;;
45434;SDS011;31183;47.404;8.500;2024-01-30T02:07:42;34.80;;;21.08;;
45434;SDS011;31183;47.404;8.500;2024-01-30T02:10:10;26.52;;;18.50;;
45434;SDS011;31183;47.404;8.500;2024-01-30T02:12:36;24.55;;;17.63;;
45434;SDS011;31183;47.404;8.500;2024-01-30T02:15:03;30.25;;;18.25;;
45434;SDS011;31183;47.404;8.500;2024-01-30T02:17:31;25.65;;;17.63;;
45434;SDS011;31183;47.404;8.500;2024-01-30T02:19:58;27.02;;;18.02;;
45434;SDS011;31183;47.404;8.500;2024-01-30T02:22:25;28.38;;;19.52;;
45434;SDS011;31183;47.404;8.500;2024-01-30T02:24:52;26.42;;;18.50;;
45434;SDS011;31183;47.404;8.500;2024-01-30T02:27:19;29.45;;;18.10;;
45434;SDS011;31183;47.404;8.500;2024-01-30T02:29:45;26.10;;;17.67;;
45434;SDS011;31183;47.404;8.500;2024-01-30T02:32:12;28.02;;;18.98;;
45434;SDS011;31183;47.404;8.500;2024-01-30T02:34:39;25.75;;;18.02;;
45434;SDS011;31183;47.404;8.500;2024-01-30T02:37:05;25.48;;;17.52;;
45434;SDS011;31183;47.404;8.500;2024-01-30T02:39:32;26.50;;;17.38;;
45434;SDS011;31183;47.404;8.500;2024-01-30T02:41:59;25.85;;;16.67;;
45434;SDS011;31183;47.404;8.500;2024-01-30T02:44:26;33.28;;;18.15;;
45434;SDS011;31183;47.404;8.500;2024-01-30T02:46:52;25.90;;;17.77;;
45434;SDS011;31183;47.404;8.500;2024-01-30T02:49:20;28.10;;;18.60;;
45434;SDS011;31183;47.404;8.500;2024-01-30T02:51:48;25.50;;;17.23;;
45434;SDS011;31183;47.404;8.500;2024-01-30T02:54:14;28.67;;;18.70;;
45434;SDS011;31183;47.404;8.500;2024-01-30T02:56:41;29.40;;;18.23;;
45434;SDS011;31183;47.404;8.500;2024-01-30T02:59:08;27.95;;;19.27;;
45434;SDS011;31183;47.404;8.500;2024-01-30T03:01:42;30.85;;;18.70;;
45434;SDS011;31183;47.404;8.500;2024-01-30T03:04:13;28.00;;;17.52;;
45434;SDS011;31183;47.404;8.500;2024-01-30T03:06:44;30.58;;;18.13;;
45434;SDS011;31183;47.404;8.500;2024-01-30T03:09:12;30.15;;;18.08;;
45434;SDS011;31183;47.404;8.500;2024-01-30T03:11:39;31.95;;;19.38;;
45434;SDS011;31183;47.404;8.500;2024-01-30T03:14:06;29.05;;;18.83;;
45434;SDS011;31183;47.404;8.500;2024-01-30T03:16:34;29.90;;;17.90;;
45434;SDS011;31183;47.404;8.500;2024-01-30T03:19:00;30.58;;;17.83;;
45434;SDS011;31183;47.404;8.500;2024-01-30T03:21:28;36.25;;;19.48;;
45434;SDS011;31183;47.404;8.500;2024-01-30T03:23:55;27.85;;;19.05;;
45434;SDS011;31183;47.404;8.500;2024-01-30T03:26:21;29.27;;;18.65;;
45434;SDS011;31183;47.404;8.500;2024-01-30T03:28:48;24.42;;;17.45;;
45434;SDS011;31183;47.404;8.500;2024-01-30T03:31:15;28.70;;;18.35;;
45434;SDS011;31183;47.404;8.500;2024-01-30T03:33:42;26.20;;;17.20;;
45434;SDS011;31183;47.404;8.500;2024-01-30T03:36:09;29.25;;;19.15;;
45434;SDS011;31183;47.404;8.500;2024-01-30T03:38:37;28.60;;;18.42;;
45434;SDS011;31183;47.404;8.500;2024-01-30T03:41:07;26.08;;;18.02;;
45434;SDS011;31183;47.404;8.500;2024-01-30T03:43:35;25.98;;;17.65;;
45434;SDS011;31183;47.404;8.500;2024-01-30T03:46:02;26.23;;;17.58;;
45434;SDS011;31183;47.404;8.500;2024-01-30T03:48:29;30.35;;;19.13;;
45434;SDS011;31183;47.404;8.500;2024-01-30T03:50:56;28.55;;;18.38;;
45434;SDS011;31183;47.404;8.500;2024-01-30T03:53:23;26.58;;;17.75;;
45434;SDS011;31183;47.404;8.500;2024-01-30T03:55:50;31.67;;;19.00;;
45434;SDS011;31183;47.404;8.500;2024-01-30T03:58:16;28.95;;;18.13;;
45434;SDS011;31183;47.404;8.500;2024-01-30T04:00:43;24.27;;;17.25;;
45434;SDS011;31183;47.404;8.500;2024-01-30T04:03:10;26.08;;;17.80;;
45434;SDS011;31183;47.404;8.500;2024-01-30T04:05:37;31.63;;;19.65;;
45434;SDS011;31183;47.404;8.500;2024-01-30T04:08:04;27.00;;;18.17;;
45434;SDS011;31183;47.404;8.500;2024-01-30T04:10:31;25.15;;;16.98;;
45434;SDS011;31183;47.404;8.500;2024-01-30T04:12:57;30.27;;;16.30;;
45434;SDS011;31183;47.404;8.500;2024-01-30T04:15:24;23.38;;;15.75;;
45434;SDS011;31183;47.404;8.500;2024-01-30T04:17:51;18.88;;;13.40;;
45434;SDS011;31183;47.404;8.500;2024-01-30T04:20:18;18.55;;;12.65;;
45434;SDS011;31183;47.404;8.500;2024-01-30T04:22:45;22.48;;;13.52;;
45434;SDS011;31183;47.404;8.500;2024-01-30T04:25:12;18.80;;;14.40;;
45434;SDS011;31183;47.404;8.500;2024-01-30T04:27:39;17.17;;;13.45;;
45434;SDS011;31183;47.404;8.500;2024-01-30T04:30:06;22.98;;;14.25;;
45434;SDS011;31183;47.404;8.500;2024-01-30T04:32:33;19.73;;;13.80;;
45434;SDS011;31183;47.404;8.500;2024-01-30T04:35:01;20.75;;;13.38;;
45434;SDS011;31183;47.404;8.500;2024-01-30T04:37:31;20.85;;;14.23;;
45434;SDS011;31183;47.404;8.500;2024-01-30T04:39:57;18.73;;;12.98;;
45434;SDS011;31183;47.404;8.500;2024-01-30T04:42:24;16.40;;;11.25;;
45434;SDS011;31183;47.404;8.500;2024-01-30T04:44:51;16.13;;;11.60;;
45434;SDS011;31183;47.404;8.500;2024-01-30T04:47:18;14.70;;;10.40;;
45434;SDS011;31183;47.404;8.500;2024-01-30T04:49:44;15.68;;;10.02;;
45434;SDS011;31183;47.404;8.500;2024-01-30T04:52:11;12.18;;;9.15;;
45434;SDS011;31183;47.404;8.500;2024-01-30T04:54:38;11.95;;;9.40;;
45434;SDS011;31183;47.404;8.500;2024-01-30T04:57:04;13.20;;;10.85;;
45434;SDS011;31183;47.404;8.500;2024-01-30T04:59:35;12.23;;;8.70;;
45434;SDS011;31183;47.404;8.500;2024-01-30T05:02:02;12.48;;;9.57;;
45434;SDS011;31183;47.404;8.500;2024-01-30T05:04:29;14.68;;;9.93;;
45434;SDS011;31183;47.404;8.500;2024-01-30T05:06:56;13.52;;;9.43;;
45434;SDS011;31183;47.404;8.500;2024-01-30T05:09:23;16.98;;;9.55;;
45434;SDS011;31183;47.404;8.500;2024-01-30T05:11:49;11.65;;;9.40;;
45434;SDS011;31183;47.404;8.500;2024-01-30T05:14:16;11.02;;;8.77;;
45434;SDS011;31183;47.404;8.500;2024-01-30T05:16:44;12.05;;;9.07;;
45434;SDS011;31183;47.404;8.500;2024-01-30T05:19:13;9.63;;;8.02;;
45434;SDS011;31183;47.404;8.500;2024-01-30T05:21:41;9.93;;;7.93;;
45434;SDS011;31183;47.404;8.500;2024-01-30T05:24:07;10.20;;;8.20;;
45434;SDS011;31183;47.404;8.500;2024-01-30T05:26:36;11.13;;;8.63;;
45434;SDS011;31183;47.404;8.500;2024-01-30T05:29:02;10.10;;;8.18;;
45434;SDS011;31183;47.404;8.500;2024-01-30T05:31:30;10.80;;;8.50;;
45434;SDS011;31183;47.404;8.500;2024-01-30T05:33:56;12.23;;;9.35;;
45434;SDS011;31183;47.404;8.500;2024-01-30T05:36:24;11.27;;;8.90;;
45434;SDS011;31183;47.404;8.500;2024-01-30T05:38:50;12.38;;;8.55;;
45434;SDS011;31183;47.404;8.500;2024-01-30T05:41:17;10.45;;;8.52;;
45434;SDS011;31183;47.404;8.500;2024-01-30T05:43:44;11.63;;;9.07;;
45434;SDS011;31183;47.404;8.500;2024-01-30T05:46:10;10.13;;;8.32;;
45434;SDS011;31183;47.404;8.500;2024-01-30T05:48:37;10.88;;;8.20;;
45434;SDS011;31183;47.404;8.500;2024-01-30T05:51:04;12.25;;;8.88;;
45434;SDS011;31183;47.404;8.500;2024-01-30T05:53:31;12.65;;;8.82;;
45434;SDS011;31183;47.404;8.500;2024-01-30T05:55:58;9.93;;;8.30;;
45434;SDS011;31183;47.404;8.500;2024-01-30T05:58:25;11.32;;;9.18;;
45434;SDS011;31183;47.404;8.500;2024-01-30T06:00:52;10.88;;;8.05;;
45434;SDS011;31183;47.404;8.500;2024-01-30T06:03:18;11.65;;;8.05;;
45434;SDS011;31183;47.404;8.500;2024-01-30T06:05:45;11.38;;;9.00;;
45434;SDS011;31183;47.404;8.500;2024-01-30T06:08:12;8.73;;;7.55;;
45434;SDS011;31183;47.404;8.500;2024-01-30T06:10:38;13.30;;;9.93;;
45434;SDS011;31183;47.404;8.500;2024-01-30T06:13:05;15.20;;;10.20;;
45434;SDS011;31183;47.404;8.500;2024-01-30T06:15:32;17.63;;;11.60;;
45434;SDS011;31183;47.404;8.500;2024-01-30T06:17:59;19.27;;;13.35;;
45434;SDS011;31183;47.404;8.500;2024-01-30T06:20:25;20.65;;;13.18;;
45434;SDS011;31183;47.404;8.500;2024-01-30T06:22:52;19.10;;;14.63;;
45434;SDS011;31183;47.404;8.500;2024-01-30T06:25:19;19.65;;;13.68;;
45434;SDS011;31183;47.404;8.500;2024-01-30T06:27:46;22.65;;;14.55;;
45434;SDS011;31183;47.404;8.500;2024-01-30T06:30:12;20.63;;;14.25;;
45434;SDS011;31183;47.404;8.500;2024-01-30T06:32:39;18.13;;;13.23;;
45434;SDS011;31183;47.404;8.500;2024-01-30T06:35:06;23.35;;;15.23;;
45434;SDS011;31183;47.404;8.500;2024-01-30T06:37:33;20.98;;;14.80;;
45434;SDS011;31183;47.404;8.500;2024-01-30T06:40:00;27.40;;;15.05;;
45434;SDS011;31183;47.404;8.500;2024-01-30T06:42:26;21.52;;;13.57;;
45434;SDS011;31183;47.404;8.500;2024-01-30T06:44:53;18.85;;;12.45;;
45434;SDS011;31183;47.404;8.500;2024-01-30T06:47:19;18.95;;;13.80;;
45434;SDS011;31183;47.404;8.500;2024-01-30T06:49:46;22.95;;;15.55;;
45434;SDS011;31183;47.404;8.500;2024-01-30T06:52:13;20.75;;;14.30;;
45434;SDS011;31183;47.404;8.500;2024-01-30T06:54:40;17.83;;;12.13;;
45434;SDS011;31183;47.404;8.500;2024-01-30T06:57:07;17.85;;;12.98;;
45434;SDS011;31183;47.404;8.500;2024-01-30T06:59:38;20.25;;;12.98;;
45434;SDS011;31183;47.404;8.500;2024-01-30T07:02:09;17.58;;;12.25;;
45434;SDS011;31183;47.404;8.500;2024-01-30T07:04:37;20.98;;;13.32;;
45434;SDS011;31183;47.404;8.500;2024-01-30T07:07:06;23.85;;;13.70;;
45434;SDS011;31183;47.404;8.500;2024-01-30T07:09:38;23.38;;;12.60;;
45434;SDS011;31183;47.404;8.500;2024-01-30T07:12:05;20.20;;;14.00;;
45434;SDS011;31183;47.404;8.500;2024-01-30T07:14:33;23.00;;;14.13;;
45434;SDS011;31183;47.404;8.500;2024-01-30T07:16:59;21.08;;;13.82;;
45434;SDS011;31183;47.404;8.500;2024-01-30T07:19:26;17.05;;;12.38;;
45434;SDS011;31183;47.404;8.500;2024-01-30T07:21:53;21.08;;;14.30;;
45434;SDS011;31183;47.404;8.500;2024-01-30T07:24:19;18.05;;;13.15;;
45434;SDS011;31183;47.404;8.500;2024-01-30T07:26:46;20.13;;;13.70;;
45434;SDS011;31183;47.404;8.500;2024-01-30T07:29:12;25.40;;;15.52;;
45434;SDS011;31183;47.404;8.500;2024-01-30T07:31:39;17.42;;;13.52;;
45434;SDS011;31183;47.404;8.500;2024-01-30T07:34:06;21.85;;;14.07;;
45434;SDS011;31183;47.404;8.500;2024-01-30T07:36:33;27.05;;;15.40;;
45434;SDS011;31183;47.404;8.500;2024-01-30T07:39:00;24.10;;;15.05;;
45434;SDS011;31183;47.404;8.500;2024-01-30T07:41:26;19.70;;;14.23;;
45434;SDS011;31183;47.404;8.500;2024-01-30T07:43:53;21.45;;;15.63;;
45434;SDS011;31183;47.404;8.500;2024-01-30T07:46:20;23.58;;;14.15;;
45434;SDS011;31183;47.404;8.500;2024-01-30T07:48:47;23.02;;;13.85;;
45434;SDS011;31183;47.404;8.500;2024-01-30T07:51:15;22.23;;;14.70;;
45434;SDS011;31183;47.404;8.500;2024-01-30T07:53:42;20.23;;;14.02;;
45434;SDS011;31183;47.404;8.500;2024-01-30T07:56:08;24.50;;;13.10;;
45434;SDS011;31183;47.404;8.500;2024-01-30T07:58:36;18.55;;;12.38;;
45434;SDS011;31183;47.404;8.500;2024-01-30T08:01:03;19.17;;;12.88;;
45434;SDS011;31183;47.404;8.500;2024-01-30T08:03:30;17.90;;;13.20;;
45434;SDS011;31183;47.404;8.500;2024-01-30T08:05:57;21.25;;;12.75;;
45434;SDS011;31183;47.404;8.500;2024-01-30T08:08:23;18.65;;;13.13;;
45434;SDS011;31183;47.404;8.500;2024-01-30T08:10:51;19.00;;;13.98;;
45434;SDS011;31183;47.404;8.500;2024-01-30T08:13:18;20.17;;;13.18;;
45434;SDS011;31183;47.404;8.500;2024-01-30T08:15:44;16.42;;;11.82;;
45434;SDS011;31183;47.404;8.500;2024-01-30T08:18:11;17.88;;;11.55;;
45434;SDS011;31183;47.404;8.500;2024-01-30T08:20:38;16.75;;;12.07;;
45434;SDS011;31183;47.404;8.500;2024-01-30T08:23:04;16.35;;;11.55;;
45434;SDS011;31183;47.404;8.500;2024-01-30T08:25:31;19.52;;;12.23;;
45434;SDS011;31183;47.404;8.500;2024-01-30T08:27:58;18.55;;;12.02;;
45434;SDS011;31183;47.404;8.500;2024-01-30T08:30:24;17.85;;;12.13;;
45434;SDS011;31183;47.404;8.500;2024-01-30T08:32:51;16.33;;;11.18;;
45434;SDS011;31183;47.404;8.500;2024-01-30T08:35:18;14.95;;;12.05;;
45434;SDS011;31183;47.404;8.500;2024-01-30T08:37:45;14.13;;;11.57;;
45434;SDS011;31183;47.404;8.500;2024-01-30T08:40:12;14.43;;;11.75;;
45434;SDS011;31183;47.404;8.500;2024-01-30T08:42:39;14.48;;;10.48;;
45434;SDS011;31183;47.404;8.500;2024-01-30T08:45:05;13.85;;;10.30;;
45434;SDS011;31183;47.404;8.500;2024-01-30T08:47:33;14.50;;;9.52;;
45434;SDS011;31183;47.404;8.500;2024-01-30T08:50:00;17.13;;;9.95;;
45434;SDS011;31183;47.404;8.500;2024-01-30T08:52:27;13.70;;;9.20;;
45434;SDS011;31183;47.404;8.500;2024-01-30T08:54:54;12.30;;;9.43;;
45434;SDS011;31183;47.404;8.500;2024-01-30T08:57:20;13.63;;;10.70;;
45434;SDS011;31183;47.404;8.500;2024-01-30T08:59:47;16.42;;;10.75;;
45434;SDS011;31183;47.404;8.500;2024-01-30T09:02:14;12.90;;;11.00;;
45434;SDS011;31183;47.404;8.500;2024-01-30T09:04:42;12.07;;;9.73;;
45434;SDS011;31183;47.404;8.500;2024-01-30T09:07:09;13.85;;;10.35;;
45434;SDS011;31183;47.404;8.500;2024-01-30T09:09:40;14.50;;;9.73;;
45434;SDS011;31183;47.404;8.500;2024-01-30T09:12:07;16.35;;;11.95;;
45434;SDS011;31183;47.404;8.500;2024-01-30T09:14:37;15.30;;;10.02;;
45434;SDS011;31183;47.404;8.500;2024-01-30T09:17:05;13.45;;;10.05;;
45434;SDS011;31183;47.404;8.500;2024-01-30T09:19:31;12.60;;;9.88;;
45434;SDS011;31183;47.404;8.500;2024-01-30T09:21:59;13.18;;;11.38;;
45434;SDS011;31183;47.404;8.500;2024-01-30T09:24:26;12.85;;;10.32;;
45434;SDS011;31183;47.404;8.500;2024-01-30T09:26:53;14.52;;;10.70;;
45434;SDS011;31183;47.404;8.500;2024-01-30T09:29:19;12.55;;;10.93;;
45434;SDS011;31183;47.404;8.500;2024-01-30T09:31:47;12.82;;;9.38;;
45434;SDS011;31183;47.404;8.500;2024-01-30T09:34:13;12.35;;;10.65;;
45434;SDS011;31183;47.404;8.500;2024-01-30T09:36:40;16.60;;;11.32;;
45434;SDS011;31183;47.404;8.500;2024-01-30T09:39:07;15.13;;;10.18;;
45434;SDS011;31183;47.404;8.500;2024-01-30T09:41:35;11.77;;;10.00;;
45434;SDS011;31183;47.404;8.500;2024-01-30T09:44:21;12.52;;;10.20;;
45434;SDS011;31183;47.404;8.500;2024-01-30T09:46:51;13.13;;;10.05;;
45434;SDS011;31183;47.404;8.500;2024-01-30T09:49:18;10.82;;;9.13;;
45434;SDS011;31183;47.404;8.500;2024-01-30T09:51:47;17.95;;;10.05;;
45434;SDS011;31183;47.404;8.500;2024-01-30T09:54:14;11.57;;;9.50;;
45434;SDS011;31183;47.404;8.500;2024-01-30T09:56:42;12.88;;;9.63;;
45434;SDS011;31183;47.404;8.500;2024-01-30T09:59:09;27.92;;;9.93;;
45434;SDS011;31183;47.404;8.500;2024-01-30T10:01:35;12.15;;;9.02;;
45434;SDS011;31183;47.404;8.500;2024-01-30T10:04:03;13.35;;;9.38;;
45434;SDS011;31183;47.404;8.500;2024-01-30T10:06:31;10.77;;;9.65;;
45434;SDS011;31183;47.404;8.500;2024-01-30T10:08:57;14.82;;;9.77;;
45434;SDS011;31183;47.404;8.500;2024-01-30T10:11:24;10.55;;;9.32;;
45434;SDS011;31183;47.404;8.500;2024-01-30T10:13:51;11.82;;;8.80;;
45434;SDS011;31183;47.404;8.500;2024-01-30T10:16:18;11.43;;;9.25;;
45434;SDS011;31183;47.404;8.500;2024-01-30T10:18:45;9.20;;;8.30;;
45434;SDS011;31183;47.404;8.500;2024-01-30T10:21:12;8.43;;;7.53;;
45434;SDS011;31183;47.404;8.500;2024-01-30T10:23:38;9.65;;;8.70;;
45434;SDS011;31183;47.404;8.500;2024-01-30T10:26:06;11.02;;;8.15;;
45434;SDS011;31183;47.404;8.500;2024-01-30T10:28:33;8.85;;;7.95;;
45434;SDS011;31183;47.404;8.500;2024-01-30T10:31:00;10.68;;;7.10;;
45434;SDS011;31183;47.404;8.500;2024-01-30T10:33:32;10.20;;;8.50;;
45434;SDS011;31183;47.404;8.500;2024-01-30T10:36:03;11.15;;;8.77;;
45434;SDS011;31183;47.404;8.500;2024-01-30T10:38:31;9.57;;;8.18;;
45434;SDS011;31183;47.404;8.500;2024-01-30T10:41:01;10.48;;;9.48;;
45434;SDS011;31183;47.404;8.500;2024-01-30T10:43:32;10.48;;;9.45;;
45434;SDS011;31183;47.404;8.500;2024-01-30T10:46:18;12.80;;;10.20;;
45434;SDS011;31183;47.404;8.500;2024-01-30T10:48:56;12.73;;;9.57;;
45434;SDS011;31183;47.404;8.500;2024-01-30T10:51:28;10.75;;;9.65;;
45434;SDS011;31183;47.404;8.500;2024-01-30T10:53:55;12.63;;;9.90;;
45434;SDS011;31183;47.404;8.500;2024-01-30T10:56:24;10.98;;;9.40;;
45434;SDS011;31183;47.404;8.500;2024-01-30T10:58:51;13.93;;;10.48;;
45434;SDS011;31183;47.404;8.500;2024-01-30T11:01:19;13.07;;;9.85;;
45434;SDS011;31183;47.404;8.500;2024-01-30T11:03:50;13.30;;;10.68;;
45434;SDS011;31183;47.404;8.500;2024-01-30T11:06:24;13.75;;;10.13;;
45434;SDS011;31183;47.404;8.500;2024-01-30T11:09:01;14.77;;;9.77;;
45434;SDS011;31183;47.404;8.500;2024-01-30T11:11:57;13.50;;;10.27;;
45434;SDS011;31183;47.404;8.500;2024-01-30T11:14:27;15.45;;;11.38;;
45434;SDS011;31183;47.404;8.500;2024-01-30T11:16:58;14.15;;;10.35;;
45434;SDS011;31183;47.404;8.500;2024-01-30T11:19:26;12.88;;;11.27;;
45434;SDS011;31183;47.404;8.500;2024-01-30T11:21:54;21.73;;;11.80;;
45434;SDS011;31183;47.404;8.500;2024-01-30T11:24:23;18.48;;;11.45;;
45434;SDS011;31183;47.404;8.500;2024-01-30T11:26:57;13.40;;;10.20;;
45434;SDS011;31183;47.404;8.500;2024-01-30T11:29:28;15.00;;;10.70;;
45434;SDS011;31183;47.404;8.500;2024-01-30T11:31:56;13.40;;;10.77;;
45434;SDS011;31183;47.404;8.500;2024-01-30T11:34:25;13.63;;;10.27;;
45434;SDS011;31183;47.404;8.500;2024-01-30T11:36:52;12.57;;;10.43;;
45434;SDS011;31183;47.404;8.500;2024-01-30T11:39:25;16.48;;;10.55;;
45434;SDS011;31183;47.404;8.500;2024-01-30T11:41:52;13.55;;;10.85;;
45434;SDS011;31183;47.404;8.500;2024-01-30T11:44:20;13.52;;;10.98;;
45434;SDS011;31183;47.404;8.500;2024-01-30T11:46:48;17.33;;;10.75;;
45434;SDS011;31183;47.404;8.500;2024-01-30T11:49:18;14.07;;;10.32;;
45434;SDS011;31183;47.404;8.500;2024-01-30T11:51:45;12.57;;;9.60;;
45434;SDS011;31183;47.404;8.500;2024-01-30T11:54:17;16.63;;;10.23;;
45434;SDS011;31183;47.404;8.500;2024-01-30T11:56:44;15.25;;;10.77;;
45434;SDS011;31183;47.404;8.500;2024-01-30T11:59:10;18.67;;;11.57;;
45434;SDS011;31183;47.404;8.500;2024-01-30T12:01:37;13.80;;;10.48;;
45434;SDS011;31183;47.404;8.500;2024-01-30T12:04:04;19.23;;;10.48;;
45434;SDS011;31183;47.404;8.500;2024-01-30T12:06:35;13.70;;;11.00;;
45434;SDS011;31183;47.404;8.500;2024-01-30T12:09:03;12.82;;;10.90;;
45434;SDS011;31183;47.404;8.500;2024-01-30T12:11:47;13.68;;;9.70;;
45434;SDS011;31183;47.404;8.500;2024-01-30T12:14:16;20.75;;;10.95;;
45434;SDS011;31183;47.404;8.500;2024-01-30T12:16:43;14.32;;;9.98;;
45434;SDS011;31183;47.404;8.500;2024-01-30T12:19:20;17.90;;;10.70;;
45434;SDS011;31183;47.404;8.500;2024-01-30T12:21:55;15.15;;;10.65;;
45434;SDS011;31183;47.404;8.500;2024-01-30T12:24:26;14.60;;;11.60;;
45434;SDS011;31183;47.404;8.500;2024-01-30T12:26:57;15.57;;;11.23;;
45434;SDS011;31183;47.404;8.500;2024-01-30T12:29:24;15.13;;;11.40;;
45434;SDS011;31183;47.404;8.500;2024-01-30T12:31:55;13.60;;;10.95;;
45434;SDS011;31183;47.404;8.500;2024-01-30T12:34:24;12.38;;;11.00;;
45434;SDS011;31183;47.404;8.500;2024-01-30T12:36:51;16.52;;;11.43;;
45434;SDS011;31183;47.404;8.500;2024-01-30T12:39:18;17.42;;;12.07;;
45434;SDS011;31183;47.404;8.500;2024-01-30T12:41:45;17.08;;;11.13;;
45434;SDS011;31183;47.404;8.500;2024-01-30T12:44:13;13.88;;;11.30;;
45434;SDS011;31183;47.404;8.500;2024-01-30T12:46:40;17.45;;;11.02;;
45434;SDS011;31183;47.404;8.500;2024-01-30T12:49:07;16.15;;;12.07;;
45434;SDS011;31183;47.404;8.500;2024-01-30T12:51:34;16.42;;;12.05;;
45434;SDS011;31183;47.404;8.500;2024-01-30T12:54:04;15.68;;;12.15;;
45434;SDS011;31183;47.404;8.500;2024-01-30T12:56:32;19.93;;;12.50;;
45434;SDS011;31183;47.404;8.500;2024-01-30T12:58:58;13.43;;;11.13;;
45434;SDS011;31183;47.404;8.500;2024-01-30T13:01:25;13.32;;;11.07;;
45434;SDS011;31183;47.404;8.500;2024-01-30T13:03:52;14.15;;;10.80;;
45434;SDS011;31183;47.404;8.500;2024-01-30T13:06:19;12.07;;;10.13;;
45434;SDS011;31183;47.404;8.500;2024-01-30T13:08:46;19.98;;;9.55;;
45434;SDS011;31183;47.404;8.500;2024-01-30T13:11:12;14.70;;;10.50;;
45434;SDS011;31183;47.404;8.500;2024-01-30T13:13:46;15.88;;;10.63;;
45434;SDS011;31183;47.404;8.500;2024-01-30T13:16:13;14.05;;;9.20;;
45434;SDS011;31183;47.404;8.500;2024-01-30T13:18:40;13.18;;;10.02;;
45434;SDS011;31183;47.404;8.500;2024-01-30T13:21:07;12.95;;;10.05;;
45434;SDS011;31183;47.404;8.500;2024-01-30T13:23:34;10.55;;;8.65;;
45434;SDS011;31183;47.404;8.500;2024-01-30T13:26:01;12.52;;;9.23;;
45434;SDS011;31183;47.404;8.500;2024-01-30T13:28:28;9.32;;;8.00;;
45434;SDS011;31183;47.404;8.500;2024-01-30T13:30:55;10.60;;;8.60;;
45434;SDS011;31183;47.404;8.500;2024-01-30T13:33:21;15.55;;;9.55;;
45434;SDS011;31183;47.404;8.500;2024-01-30T13:35:48;12.07;;;8.77;;
45434;SDS011;31183;47.404;8.500;2024-01-30T13:38:15;13.20;;;9.18;;
45434;SDS011;31183;47.404;8.500;2024-01-30T13:40:41;13.07;;;9.00;;
45434;SDS011;31183;47.404;8.500;2024-01-30T13:43:09;11.52;;;8.70;;
45434;SDS011;31183;47.404;8.500;2024-01-30T13:45:35;12.50;;;9.13;;
45434;SDS011;31183;47.404;8.500;2024-01-30T13:48:02;13.95;;;8.70;;
45434;SDS011;31183;47.404;8.500;2024-01-30T13:50:29;12.65;;;8.40;;
45434;SDS011;31183;47.404;8.500;2024-01-30T13:52:56;9.98;;;8.38;;
45434;SDS011;31183;47.404;8.500;2024-01-30T13:55:24;10.60;;;8.40;;
45434;SDS011;31183;47.404;8.500;2024-01-30T13:57:51;10.15;;;8.30;;
45434;SDS011;31183;47.404;8.500;2024-01-30T14:00:18;13.85;;;9.63;;
45434;SDS011;31183;47.404;8.500;2024-01-30T14:02:46;12.15;;;8.43;;
45434;SDS011;31183;47.404;8.500;2024-01-30T14:05:12;13.38;;;8.00;;
45434;SDS011;31183;47.404;8.500;2024-01-30T14:07:41;10.73;;;8.40;;
45434;SDS011;31183;47.404;8.500;2024-01-30T14:10:10;10.82;;;8.20;;
45434;SDS011;31183;47.404;8.500;2024-01-30T14:12:41;12.35;;;8.80;;
45434;SDS011;31183;47.404;8.500;2024-01-30T14:15:09;16.27;;;8.98;;
45434;SDS011;31183;47.404;8.500;2024-01-30T14:17:52;16.02;;;9.65;;
45434;SDS011;31183;47.404;8.500;2024-01-30T14:20:19;12.35;;;8.38;;
45434;SDS011;31183;47.404;8.500;2024-01-30T14:22:46;11.65;;;9.13;;
45434;SDS011;31183;47.404;8.500;2024-01-30T14:25:12;11.55;;;9.20;;
45434;SDS011;31183;47.404;8.500;2024-01-30T14:27:39;12.68;;;9.25;;
45434;SDS011;31183;47.404;8.500;2024-01-30T14:30:06;12.65;;;9.68;;